Prince Rupert Airport
CYPR : now visible

Airfield :











YOU CAN JOIN US ON...

 
LOGIN :

Register | Disclaimer

   EN    FR    IT 

 









Legend :    VFR   Marginal VFR   IFR   Intensive IFR   Very Intensive IFR
Visi :
Ceiling :
>= 8 km
>= 3000ft
5 to 8 km
1000 to 3000 ft
1500m to 5 km
500 to 1000 ft
800 to 1500m
200 to 500 ft
< 800m
< 200 ft
Symbols :   Thunderstorms  Fog  Heavy snow  Heavy precipitations  Wind > 20 kt






- Airport Elevation : 116 ft
- IATA code : YPR


CYPR - Prince Rupert

CURRENT METAR :
  • 270237Z AUTO 12013KT 9SM -RA BKN027 OVC037 06/04 A2945 RMK SLP975

EXPIRED METARs :
  • 270217Z AUTO 12011G16KT 9SM BKN027 BKN036 OVC043 06/04 A2945 RMK SLP975
  • 270200Z AUTO 13012G18KT 9SM -RA FEW029 BKN039 OVC050 06/04 A2945 RMK SLP976
  • 270100Z AUTO 12010G18KT 9SM -RA OVC049 05/03 A2946 RMK SLP980
  • 270027Z AUTO 13011KT 9SM -RA SCT055 SCT075 SCT110 06/03 A2947 RMK SLP982

TAF TAF CYPR
Valid from the 27 at 01:00 until the 27 at 13:00 UTC


270043Z 2701/2713 13012G22KT P6SM SCT020 OVC050
TEMPO 2701/2703 5SM -SHRA BR SCT008 OVC020
FM270300 15018G28KT P6SM -RA SCT020 OVC030
TEMPO 2703/2710 3SM SHRA BR SCT008 OVC020
FM271000 15015G25KT P6SM -SHRA BKN030 RMK FCST BASED ON AUTO OBS. NXT FCST BY 270700Z



MET'MAP, your aeronautical weather chart ! - Copyright ORBIFLY December 2007 - Disclaimer

ORBIFLY MET'MAP TEAM :

Programming & Development : Alexandra Zaïnal
Concept & original design : Baudouin d'Aumeries
Assistance for programming : Marc-Olivier Méhu
Technical & hardware support : Manuel Goepfert

Contact : metmap@orbifly.com




SOURCES & CREDITS :

   NOAA       Earth
Advisory